Time;durP1;ratioP1;P1;durP2;ratioP2;P2;SDS_P1;SDS_P2;PMS_P1;PMS_P2;Temp;Humidity;BMP_temperature;BMP_pressure;BME280_temperature;BME280_humidity;BME280_pressure;Samples;Min_cycle;Max_cycle;Signal;HPM_P1;HPM_P2
2022/09/17 00:01:16;;;;;;;1.92;0.60;;;;;;;27.25;24.43;97153.59;5067230;28;20060;-77
2022/09/17 00:03:42;;;;;;;0.88;0.50;;;;;;;27.65;23.83;97153.22;5059234;28;20040;-77
2022/09/17 00:06:11;;;;;;;0.68;0.60;;;;;;;28.10;23.47;97149.28;5063289;28;20036;-77
2022/09/17 00:08:39;;;;;;;0.60;0.50;;;;;;;28.48;23.00;97143.59;5062646;28;20458;-77
2022/09/17 00:11:19;;;;;;;1.55;0.63;;;;;;;28.77;23.14;97151.31;5071399;28;20592;-77
2022/09/17 00:13:46;;;;;;;1.27;0.88;;;;;;;29.09;22.13;97153.13;5056836;28;20490;-77
2022/09/17 00:16:19;;;;;;;3.17;0.60;;;;;;;29.25;21.78;97146.97;5069192;28;20028;-77
2022/09/17 00:18:46;;;;;;;2.20;0.77;;;;;;;29.34;21.58;97151.72;5068314;28;20032;-77
2022/09/17 00:21:16;;;;;;;1.00;0.70;;;;;;;28.96;21.45;97149.06;5066381;28;20043;-77
2022/09/17 00:23:43;;;;;;;0.80;0.70;;;;;;;28.74;21.92;97153.06;5062873;28;20041;-77
2022/09/17 00:26:09;;;;;;;1.05;0.70;;;;;;;28.43;22.41;97157.59;5067215;28;20061;-77
2022/09/17 00:28:35;;;;;;;1.80;0.88;;;;;;;28.25;23.10;97164.22;5067247;28;20082;-77
2022/09/17 00:31:07;;;;;;;1.08;0.60;;;;;;;28.04;23.40;97162.50;5063802;28;20040;-77
2022/09/17 00:33:33;;;;;;;0.63;0.60;;;;;;;28.20;23.08;97164.88;5064742;28;20043;-77
2022/09/17 00:36:01;;;;;;;0.63;0.63;;;;;;;28.34;22.72;97163.34;5066866;28;20391;-77
2022/09/17 00:38:28;;;;;;;1.45;0.52;;;;;;;28.42;22.84;97170.19;5067365;28;20025;-77
2022/09/17 00:40:54;;;;;;;4.13;0.70;;;;;;;28.42;22.46;97173.00;5065841;28;20111;-77
2022/09/17 00:43:32;;;;;;;0.60;0.60;;;;;;;28.44;22.68;97168.44;5065647;28;20029;-77
2022/09/17 00:45:59;;;;;;;0.75;0.60;;;;;;;28.70;22.44;97172.28;5067583;28;20071;-77
2022/09/17 00:48:26;;;;;;;0.70;0.65;;;;;;;28.46;22.51;97165.91;5069331;28;20490;-77
2022/09/17 00:50:54;;;;;;;0.82;0.65;;;;;;;28.57;22.47;97166.09;5063830;28;20090;-77
2022/09/17 00:53:21;;;;;;;0.90;0.63;;;;;;;28.79;22.44;97162.91;5065923;28;20033;-77
2022/09/17 00:56:03;;;;;;;2.80;0.80;;;;;;;28.73;22.57;97162.81;5060596;28;20032;-77
2022/09/17 00:58:31;;;;;;;0.65;0.57;;;;;;;28.95;21.79;97165.22;5061739;28;20032;-77
2022/09/17 01:00:58;;;;;;;0.85;0.73;;;;;;;28.72;22.41;97157.66;5065929;28;20116;-77
2022/09/17 01:03:24;;;;;;;4.32;0.60;;;;;;;28.37;22.73;97154.69;5066331;28;20043;-77
2022/09/17 01:06:19;;;;;;;0.60;0.60;;;;;;;28.21;23.07;97157.19;5068646;28;20733;-77
2022/09/17 01:09:11;;;;;;;0.75;0.50;;;;;;;28.31;22.89;97150.22;5057914;28;20036;-77
2022/09/17 01:12:07;;;;;;;0.95;0.77;;;;;;;28.47;22.97;97149.72;5062726;28;20024;-77
2022/09/17 01:15:06;;;;;;;0.82;0.70;;;;;;;28.62;22.37;97147.72;5065968;28;20031;-77
2022/09/17 01:17:51;;;;;;;0.68;0.68;;;;;;;28.87;22.07;97152.00;5065285;28;20032;-77
2022/09/17 01:21:00;;;;;;;0.60;0.60;;;;;;;28.56;21.96;97152.47;5062441;28;20069;-77
2022/09/17 01:23:54;;;;;;;0.40;0.40;;;;;;;28.54;22.02;97157.81;5067365;28;20436;-77
2022/09/17 01:27:02;;;;;;;1.17;0.60;;;;;;;28.59;21.61;97157.19;5066203;28;20493;-77
2022/09/17 01:29:50;;;;;;;0.40;0.40;;;;;;;28.65;21.94;97153.19;5070036;28;20063;-78
2022/09/17 01:32:52;;;;;;;0.47;0.45;;;;;;;28.45;21.96;97161.50;5070454;28;20028;-77
2022/09/17 01:35:39;;;;;;;2.25;0.50;;;;;;;28.19;22.33;97166.16;5060629;28;20029;-77
2022/09/17 01:38:24;;;;;;;0.60;0.50;;;;;;;28.11;22.30;97158.53;5068202;28;20028;-77
2022/09/17 01:40:54;;;;;;;0.52;0.52;;;;;;;28.10;22.12;97166.22;5062267;28;20385;-77
2022/09/17 01:43:34;;;;;;;0.50;0.50;;;;;;;28.26;22.08;97159.34;5065351;28;20116;-77
2022/09/17 01:46:12;;;;;;;0.77;0.60;;;;;;;28.44;21.77;97165.59;5069383;28;20071;-77
2022/09/17 01:48:44;;;;;;;1.08;0.68;;;;;;;28.32;21.83;97165.88;5062375;28;20094;-76
2022/09/17 01:51:17;;;;;;;0.50;0.50;;;;;;;28.38;21.65;97163.94;5065459;28;20383;-77
2022/09/17 01:53:50;;;;;;;0.60;0.60;;;;;;;28.08;21.87;97168.00;5068809;28;20062;-77
2022/09/17 01:56:25;;;;;;;0.47;0.40;;;;;;;28.11;21.70;97170.59;5068346;28;20389;-77
2022/09/17 01:59:05;;;;;;;0.55;0.45;;;;;;;28.16;21.75;97164.28;5067937;28;20052;-77
2022/09/17 02:01:32;;;;;;;0.52;0.50;;;;;;;28.30;21.87;97163.53;5068509;28;20040;-77
2022/09/17 02:04:08;;;;;;;0.60;0.60;;;;;;;27.98;22.18;97167.25;5062983;28;20040;-77
2022/09/17 02:06:40;;;;;;;0.32;0.32;;;;;;;28.05;21.96;97161.25;5065110;28;20033;-77
2022/09/17 02:09:14;;;;;;;1.67;0.50;;;;;;;28.13;22.03;97159.63;5060980;28;20482;-77
2022/09/17 02:11:46;;;;;;;0.68;0.57;;;;;;;27.97;21.93;97163.63;5056010;28;20513;-77
2022/09/17 02:14:20;;;;;;;0.50;0.50;;;;;;;28.10;21.80;97162.63;5064358;28;20036;-77
2022/09/17 02:16:52;;;;;;;0.80;0.70;;;;;;;28.23;21.58;97163.91;5068369;28;20026;-77
2022/09/17 02:19:28;;;;;;;0.60;0.50;;;;;;;27.96;21.77;97156.44;5060861;28;20064;-77
2022/09/17 02:22:24;;;;;;;0.90;0.65;;;;;;;27.93;21.75;97157.41;5064806;28;20052;-77
2022/09/17 02:25:13;;;;;;;0.40;0.40;;;;;;;28.03;21.79;97164.56;5064371;28;21537;-76
2022/09/17 02:27:48;;;;;;;0.77;0.60;;;;;;;27.86;21.97;97171.09;5063264;28;20083;-77
2022/09/17 02:30:16;;;;;;;0.65;0.65;;;;;;;27.81;21.75;97178.19;5064876;28;20033;-77
2022/09/17 02:32:42;;;;;;;0.57;0.52;;;;;;;27.64;22.21;97173.44;5065142;28;20068;-77
2022/09/17 02:35:10;;;;;;;0.20;0.20;;;;;;;27.51;22.08;97170.88;5063053;28;20037;-76
2022/09/17 02:37:36;;;;;;;3.42;0.50;;;;;;;27.48;22.49;97169.00;5067327;28;20024;-76
2022/09/17 02:40:04;;;;;;;1.30;0.50;;;;;;;27.71;22.31;97171.03;5067735;28;20037;-77
2022/09/17 02:42:33;;;;;;;0.50;0.40;;;;;;;27.74;22.16;97170.09;5066659;28;20040;-77
2022/09/17 02:45:13;;;;;;;0.57;0.57;;;;;;;27.77;22.21;97157.81;5063107;28;20033;-77
2022/09/17 02:47:57;;;;;;;0.60;0.60;;;;;;;27.85;22.40;97156.22;5066620;28;20486;-77
2022/09/17 02:50:44;;;;;;;0.52;0.50;;;;;;;27.97;22.12;97152.34;5063422;28;20071;-77
2022/09/17 02:53:37;;;;;;;0.88;0.52;;;;;;;28.11;22.13;97147.25;5063207;28;20036;-77
2022/09/17 02:56:19;;;;;;;0.50;0.50;;;;;;;28.38;21.58;97147.00;5061097;28;20037;-77
2022/09/17 02:58:56;;;;;;;1.13;1.02;;;;;;;28.57;21.27;97142.69;5064328;28;20033;-76
2022/09/17 03:01:50;;;;;;;0.90;0.90;;;;;;;28.54;21.06;97143.69;5062860;28;20047;-77
2022/09/17 03:04:19;;;;;;;0.65;0.50;;;;;;;28.44;21.00;97134.53;5068209;28;20040;-76
2022/09/17 03:06:46;;;;;;;0.55;0.55;;;;;;;28.41;20.89;97143.19;5067269;28;20127;-77
2022/09/17 03:09:14;;;;;;;0.75;0.65;;;;;;;28.33;20.92;97131.53;5062228;28;20483;-77
2022/09/17 03:11:40;;;;;;;0.63;0.52;;;;;;;27.93;21.16;97128.41;5065028;28;20493;-77
2022/09/17 03:14:07;;;;;;;0.85;0.60;;;;;;;27.80;21.77;97131.47;5061715;28;20032;-77
2022/09/17 03:16:33;;;;;;;0.60;0.60;;;;;;;27.82;21.64;97133.84;5060877;28;20554;-77
2022/09/17 03:18:59;;;;;;;0.73;0.50;;;;;;;27.94;21.92;97130.75;5061837;28;20367;-77
2022/09/17 03:21:25;;;;;;;0.55;0.55;;;;;;;27.94;21.81;97129.94;5072196;28;20021;-77
2022/09/17 03:23:51;;;;;;;0.55;0.55;;;;;;;27.59;22.04;97131.78;5063721;28;20040;-77
2022/09/17 03:26:18;;;;;;;2.85;0.50;;;;;;;27.51;22.52;97122.94;5063473;28;20028;-77
2022/09/17 03:28:44;;;;;;;1.73;0.60;;;;;;;27.50;22.52;97120.56;5058786;28;20104;-77
2022/09/17 03:31:10;;;;;;;1.55;0.50;;;;;;;27.66;22.46;97125.78;5064549;28;20485;-77
2022/09/17 03:33:36;;;;;;;3.53;0.68;;;;;;;27.98;22.12;97119.28;5062078;28;20072;-77
2022/09/17 03:36:02;;;;;;;0.93;0.80;;;;;;;28.16;21.47;97118.34;5059185;28;20037;-77
2022/09/17 03:38:28;;;;;;;0.75;0.55;;;;;;;28.06;21.19;97121.25;5055364;28;20040;-77
2022/09/17 03:41:03;;;;;;;0.63;0.55;;;;;;;27.94;21.58;97125.09;5064790;28;20039;-77
2022/09/17 03:43:29;;;;;;;0.75;0.40;;;;;;;27.93;21.21;97128.41;5068308;28;20020;-77
2022/09/17 03:45:55;;;;;;;0.47;0.47;;;;;;;28.02;21.34;97120.69;5065864;28;20068;-77
2022/09/17 03:48:22;;;;;;;0.60;0.60;;;;;;;28.02;21.27;97114.25;5066232;28;20037;-77
2022/09/17 03:50:48;;;;;;;0.50;0.50;;;;;;;28.08;21.46;97110.25;5070383;28;20497;-77
2022/09/17 03:53:15;;;;;;;1.90;0.50;;;;;;;27.83;21.61;97110.78;5070639;28;20068;-77
2022/09/17 03:55:41;;;;;;;0.63;0.63;;;;;;;27.75;21.96;97118.03;5066007;28;20055;-77
2022/09/17 03:58:07;;;;;;;0.63;0.57;;;;;;;27.80;21.85;97110.94;5070090;28;20036;-77
2022/09/17 04:00:36;;;;;;;0.50;0.50;;;;;;;27.72;21.93;97104.91;5066904;28;20028;-77
2022/09/17 04:03:03;;;;;;;0.52;0.50;;;;;;;27.73;21.85;97102.84;5054650;28;20032;-77
2022/09/17 04:05:29;;;;;;;0.50;0.50;;;;;;;27.74;21.65;97099.56;5085534;28;20035;-76
2022/09/17 04:07:56;;;;;;;0.95;0.47;;;;;;;27.89;21.48;97097.53;5063411;28;20367;-77
2022/09/17 04:10:22;;;;;;;0.40;0.40;;;;;;;27.81;21.08;97099.19;5072563;28;20020;-77
2022/09/17 04:12:48;;;;;;;1.30;0.40;;;;;;;27.84;21.13;97098.22;5055281;28;20033;-77
2022/09/17 04:15:14;;;;;;;0.50;0.50;;;;;;;27.98;20.66;97096.69;5065371;28;20077;-76
2022/09/17 04:17:40;;;;;;;0.50;0.50;;;;;;;27.43;21.00;97101.97;5066728;28;20029;-77
2022/09/17 04:20:06;;;;;;;0.70;0.50;;;;;;;27.28;21.73;97098.31;5057213;28;20086;-76
2022/09/17 04:22:33;;;;;;;0.82;0.47;;;;;;;27.20;21.43;97095.06;5063779;28;20242;-77
2022/09/17 04:24:59;;;;;;;0.40;0.30;;;;;;;27.13;21.76;97094.63;5065445;28;20033;-76
2022/09/17 04:27:25;;;;;;;0.63;0.50;;;;;;;27.36;21.91;97097.47;5063628;28;20039;-77
2022/09/17 04:29:51;;;;;;;0.50;0.50;;;;;;;27.52;21.36;97101.91;5065982;28;20040;-77
2022/09/17 04:32:17;;;;;;;0.40;0.40;;;;;;;27.49;21.87;97111.34;5067382;28;20033;-76
2022/09/17 04:34:43;;;;;;;1.55;0.50;;;;;;;27.59;21.55;97106.41;5059844;28;20078;-76
2022/09/17 04:37:09;;;;;;;0.40;0.40;;;;;;;27.26;21.72;97107.22;5063809;28;20062;-77
2022/09/17 04:39:37;;;;;;;0.57;0.57;;;;;;;27.27;22.21;97113.66;5065320;28;20486;-77
2022/09/17 04:42:03;;;;;;;0.40;0.40;;;;;;;27.33;21.92;97118.16;5064095;28;20028;-76
2022/09/17 04:44:29;;;;;;;0.40;0.40;;;;;;;27.29;21.99;97114.72;5066151;28;20502;-76
2022/09/17 04:46:55;;;;;;;1.08;0.52;;;;;;;27.51;21.85;97108.84;5063729;28;20040;-77
2022/09/17 04:49:21;;;;;;;0.40;0.40;;;;;;;27.60;21.38;97114.41;5062330;28;20390;-77
2022/09/17 04:51:47;;;;;;;0.40;0.40;;;;;;;27.62;21.63;97109.06;5065625;28;20040;-77
2022/09/17 04:54:13;;;;;;;0.60;0.60;;;;;;;27.76;21.76;97116.00;5065248;28;20047;-77
2022/09/17 04:56:39;;;;;;;0.40;0.40;;;;;;;27.99;21.93;97110.34;5068521;28;20032;-77
2022/09/17 04:59:05;;;;;;;1.30;0.52;;;;;;;28.21;21.36;97101.53;5075230;28;20039;-77
2022/09/17 05:01:31;;;;;;;0.40;0.40;;;;;;;28.10;21.56;97094.91;5072378;28;20028;-77
2022/09/17 05:03:57;;;;;;;0.40;0.40;;;;;;;27.88;21.88;97087.53;5074831;28;20078;-77
2022/09/17 05:06:23;;;;;;;0.95;0.60;;;;;;;27.91;22.10;97086.56;5075761;28;20119;-77
2022/09/17 05:08:49;;;;;;;0.52;0.50;;;;;;;28.25;22.21;97087.22;5066419;28;20033;-77
2022/09/17 05:11:15;;;;;;;2.70;0.55;;;;;;;28.51;21.89;97088.97;5056211;28;20029;-77
2022/09/17 05:13:41;;;;;;;1.33;0.85;;;;;;;28.87;21.67;97082.09;5055636;28;20029;-77
2022/09/17 05:16:07;;;;;;;1.00;0.75;;;;;;;29.20;21.58;97091.13;5069274;28;20058;-77
2022/09/17 05:18:33;;;;;;;0.55;0.50;;;;;;;29.46;21.01;97096.06;5070370;28;20485;-77
2022/09/17 05:20:59;;;;;;;1.10;0.45;;;;;;;29.33;20.69;97102.88;5069877;28;20036;-77
2022/09/17 05:23:25;;;;;;;0.70;0.60;;;;;;;28.68;21.52;97103.41;5068060;28;20409;-77
2022/09/17 05:25:51;;;;;;;0.43;0.43;;;;;;;28.37;22.57;97106.69;5066007;28;20090;-77
2022/09/17 05:28:18;;;;;;;0.50;0.50;;;;;;;28.42;22.40;97096.75;5070377;28;20037;-77
2022/09/17 05:30:44;;;;;;;0.60;0.60;;;;;;;28.21;23.07;97101.53;5070375;28;20044;-77
2022/09/17 05:33:10;;;;;;;2.55;0.60;;;;;;;28.38;23.72;97099.75;5071245;28;20429;-77
2022/09/17 05:35:36;;;;;;;0.73;0.60;;;;;;;28.55;23.38;97100.84;5069447;28;20037;-78
2022/09/17 05:38:04;;;;;;;0.60;0.50;;;;;;;28.82;23.42;97096.94;5073527;28;20397;-77
2022/09/17 05:40:34;;;;;;;0.93;0.50;;;;;;;29.35;22.77;97089.03;5072785;28;20040;-77
2022/09/17 05:43:03;;;;;;;0.63;0.50;;;;;;;29.52;22.56;97094.91;5073833;28;20103;-78
2022/09/17 05:45:29;;;;;;;0.40;0.40;;;;;;;29.53;22.49;97092.81;5065849;28;20056;-78
2022/09/17 05:47:57;;;;;;;0.50;0.50;;;;;;;29.48;22.27;97094.31;5066573;28;20118;-77
2022/09/17 05:50:24;;;;;;;1.05;0.47;;;;;;;29.24;22.65;97113.53;5064385;28;20055;-77
2022/09/17 05:52:51;;;;;;;0.47;0.47;;;;;;;29.44;22.76;97122.03;5065014;28;20032;-77
2022/09/17 05:55:18;;;;;;;0.75;0.50;;;;;;;29.25;23.22;97110.22;5069242;28;20060;-78
2022/09/17 05:57:45;;;;;;;1.48;0.60;;;;;;;28.63;24.14;97107.69;5072217;28;20036;-78
2022/09/17 06:00:11;;;;;;;0.55;0.50;;;;;;;28.85;23.73;97101.59;5068408;28;20404;-78
2022/09/17 06:02:38;;;;;;;0.57;0.50;;;;;;;28.90;23.83;97109.38;5066558;28;20036;-78
2022/09/17 06:05:04;;;;;;;0.50;0.50;;;;;;;29.28;23.97;97117.72;5061506;28;20025;-77
2022/09/17 06:07:30;;;;;;;0.65;0.65;;;;;;;29.20;23.67;97127.09;5065082;28;20032;-77
2022/09/17 06:09:56;;;;;;;0.55;0.55;;;;;;;29.29;24.17;97121.31;5061052;28;20055;-77
2022/09/17 06:12:25;;;;;;;1.20;0.50;;;;;;;29.10;24.80;97111.50;5061523;28;20057;-77
2022/09/17 06:14:51;;;;;;;1.52;0.75;;;;;;;29.13;25.09;97094.31;5065919;28;20029;-77
2022/09/17 06:17:17;;;;;;;1.67;0.90;;;;;;;29.32;24.47;97104.13;5061585;28;20060;-76
2022/09/17 06:19:43;;;;;;;0.50;0.50;;;;;;;29.74;23.82;97105.69;5062282;28;20041;-76
2022/09/17 06:22:09;;;;;;;0.85;0.80;;;;;;;30.41;23.90;97105.19;5062906;28;20029;-77
2022/09/17 06:24:35;;;;;;;0.80;0.80;;;;;;;30.78;22.18;97100.38;5059755;28;20385;-77
2022/09/17 06:27:01;;;;;;;0.73;0.60;;;;;;;30.93;23.28;97100.28;5064973;28;20040;-77
2022/09/17 06:29:27;;;;;;;0.73;0.68;;;;;;;31.40;22.78;97093.09;5067641;28;20106;-78
2022/09/17 06:31:54;;;;;;;0.60;0.50;;;;;;;31.56;22.02;97098.09;5053893;28;20040;-78
2022/09/17 06:34:20;;;;;;;1.40;0.40;;;;;;;31.50;22.34;97102.19;5061689;28;20031;-78
2022/09/17 06:36:48;;;;;;;0.90;0.57;;;;;;;31.49;22.16;97101.41;5060115;28;20041;-77
2022/09/17 06:39:14;;;;;;;1.85;0.60;;;;;;;31.17;22.31;97108.44;5054082;28;20031;-78
2022/09/17 06:41:43;;;;;;;0.50;0.50;;;;;;;31.25;23.12;97093.25;5055353;28;20041;-78
2022/09/17 06:44:09;;;;;;;0.50;0.45;;;;;;;31.61;22.68;97094.53;5065581;28;20033;-78
2022/09/17 06:46:35;;;;;;;0.55;0.55;;;;;;;31.86;22.10;97099.25;5067390;28;20060;-78
2022/09/17 06:49:01;;;;;;;0.35;0.35;;;;;;;31.80;22.06;97098.47;5068958;28;20036;-78
2022/09/17 06:51:27;;;;;;;0.93;0.60;;;;;;;31.42;22.29;97093.34;5062485;28;20048;-78
2022/09/17 06:53:53;;;;;;;0.50;0.50;;;;;;;31.25;22.22;97093.25;5063412;28;20528;-79
2022/09/17 06:56:19;;;;;;;0.40;0.40;;;;;;;30.91;22.81;97097.16;5064614;28;20435;-79
2022/09/17 06:58:46;;;;;;;0.55;0.55;;;;;;;30.89;23.04;97104.63;5066566;28;20505;-79
2022/09/17 07:01:12;;;;;;;1.10;0.55;;;;;;;30.75;22.92;97104.25;5061329;28;20037;-79
2022/09/17 07:03:41;;;;;;;0.82;0.70;;;;;;;30.98;23.16;97102.38;5064719;28;20033;-79
2022/09/17 07:06:09;;;;;;;0.47;0.47;;;;;;;31.36;23.01;97096.19;5063063;28;20055;-79
2022/09/17 07:08:36;;;;;;;0.80;0.80;;;;;;;31.76;22.94;97111.38;5063341;28;20477;-79
2022/09/17 07:11:02;;;;;;;1.27;1.17;;;;;;;32.05;22.55;97108.13;5062343;28;20043;-79
2022/09/17 07:13:28;;;;;;;0.60;0.60;;;;;;;32.18;22.29;97108.44;5063814;28;20037;-79
2022/09/17 07:15:59;;;;;;;0.85;0.82;;;;;;;31.83;23.39;97111.66;5066652;28;20048;-78
2022/09/17 07:18:26;;;;;;;1.60;1.10;;;;;;;31.82;23.56;97107.25;5064919;28;20436;-78
2022/09/17 07:20:58;;;;;;;0.85;0.80;;;;;;;31.69;23.88;97106.97;5064935;28;20043;-79
2022/09/17 07:23:26;;;;;;;0.50;0.50;;;;;;;31.90;23.64;97110.38;5063863;28;20608;-79
2022/09/17 07:25:54;;;;;;;0.95;0.65;;;;;;;32.14;22.79;97107.13;5066923;28;20037;-79
2022/09/17 07:28:21;;;;;;;0.50;0.50;;;;;;;32.31;22.98;97122.91;5067492;28;20115;-79
2022/09/17 07:30:48;;;;;;;0.50;0.50;;;;;;;32.23;22.23;97116.19;5067764;28;20040;-78
2022/09/17 07:33:16;;;;;;;0.50;0.50;;;;;;;32.29;23.23;97131.19;5065560;28;20025;-78
2022/09/17 07:35:42;;;;;;;0.52;0.52;;;;;;;32.45;22.64;97132.50;5067112;28;20033;-78
2022/09/17 07:38:08;;;;;;;0.60;0.60;;;;;;;32.61;23.04;97137.47;5066755;28;20478;-80
2022/09/17 07:40:34;;;;;;;3.92;0.60;;;;;;;32.67;22.78;97141.09;5061306;28;20046;-79
2022/09/17 07:43:00;;;;;;;0.50;0.50;;;;;;;32.80;22.92;97154.78;5065550;28;20033;-78
2022/09/17 07:45:26;;;;;;;0.50;0.50;;;;;;;32.05;22.22;97153.56;5062151;28;20044;-78
2022/09/17 07:47:53;;;;;;;0.57;0.50;;;;;;;31.97;23.22;97146.84;5069542;28;20036;-78
2022/09/17 07:50:19;;;;;;;1.55;0.50;;;;;;;31.93;22.80;97149.88;5062939;28;20040;-78
2022/09/17 07:52:46;;;;;;;0.50;0.50;;;;;;;32.38;23.32;97141.53;5068539;28;20032;-79
2022/09/17 07:55:12;;;;;;;0.75;0.63;;;;;;;32.54;22.33;97140.81;5066675;28;20021;-79
2022/09/17 07:57:39;;;;;;;0.30;0.30;;;;;;;32.44;22.54;97136.66;5066186;28;20040;-79
2022/09/17 08:00:06;;;;;;;2.05;0.50;;;;;;;32.55;22.52;97148.84;5062592;28;20055;-79
2022/09/17 08:02:32;;;;;;;0.82;0.40;;;;;;;32.52;22.30;97135.66;5064607;28;20068;-79
2022/09/17 08:04:58;;;;;;;0.75;0.50;;;;;;;31.92;23.26;97133.38;5064245;28;20029;-79
2022/09/17 08:07:24;;;;;;;0.60;0.50;;;;;;;31.89;22.60;97128.69;5059235;28;20043;-78
2022/09/17 08:09:51;;;;;;;0.30;0.30;;;;;;;31.80;22.50;97131.75;5059010;28;20037;-78
2022/09/17 08:12:18;;;;;;;1.63;0.40;;;;;;;31.92;22.38;97125.63;5062746;28;20636;-78
2022/09/17 08:14:44;;;;;;;0.32;0.30;;;;;;;32.34;22.60;97126.81;5060237;28;20041;-78
2022/09/17 08:17:10;;;;;;;2.40;0.50;;;;;;;32.39;21.96;97126.03;5061776;28;20064;-79
2022/09/17 08:19:36;;;;;;;0.40;0.40;;;;;;;32.38;21.46;97118.78;5063102;28;20036;-78
2022/09/17 08:22:02;;;;;;;1.60;0.50;;;;;;;32.24;22.64;97125.47;5057458;28;20036;-78
2022/09/17 08:24:28;;;;;;;0.47;0.40;;;;;;;32.23;22.49;97121.09;5060112;28;20059;-78
2022/09/17 08:26:54;;;;;;;0.30;0.30;;;;;;;31.93;24.64;97124.31;5057116;28;20109;-78
2022/09/17 08:29:20;;;;;;;0.40;0.40;;;;;;;30.95;23.97;97125.31;5066522;28;20040;-78
2022/09/17 08:31:47;;;;;;;1.52;0.80;;;;;;;30.66;22.87;97115.75;5067924;28;20045;-78
2022/09/17 08:34:13;;;;;;;0.60;0.60;;;;;;;30.01;25.67;97117.38;5070473;28;20055;-77
2022/09/17 08:36:39;;;;;;;0.70;0.63;;;;;;;29.28;27.92;97114.09;5072079;28;20482;-77
2022/09/17 08:39:05;;;;;;;0.98;0.80;;;;;;;29.60;24.58;97123.53;5069226;28;20060;-77
2022/09/17 08:42:04;;;;;;;0.95;0.80;;;;;;;28.62;26.01;97128.72;5063965;28;20021;-77
2022/09/17 08:44:45;;;;;;;0.70;0.70;;;;;;;28.56;28.59;97119.34;5069430;28;20036;-77
2022/09/17 08:47:27;;;;;;;3.53;0.60;;;;;;;29.39;25.08;97119.91;5074501;28;20093;-77
2022/09/17 08:49:59;;;;;;;1.70;0.60;;;;;;;29.55;24.20;97122.19;5066567;28;20099;-77
2022/09/17 08:52:37;;;;;;;2.05;0.88;;;;;;;29.18;24.03;97121.94;5069064;28;20029;-77
2022/09/17 08:55:20;;;;;;;2.03;0.90;;;;;;;29.63;25.34;97125.38;5065036;28;20151;-78
2022/09/17 08:58:05;;;;;;;0.70;0.70;;;;;;;29.68;24.99;97121.84;5061821;28;20405;-77
2022/09/17 09:00:44;;;;;;;2.13;0.57;;;;;;;29.52;23.70;97111.09;5067582;28;20538;-77
2022/09/17 09:03:44;;;;;;;2.53;0.80;;;;;;;29.16;23.51;97101.03;5066133;28;20386;-77
2022/09/17 09:06:12;;;;;;;0.80;0.60;;;;;;;29.12;24.06;97104.09;5065921;28;20163;-77
2022/09/17 09:08:50;;;;;;;0.82;0.70;;;;;;;28.83;24.32;97106.19;5064927;28;20028;-77
2022/09/17 09:11:25;;;;;;;0.80;0.57;;;;;;;29.26;22.68;97103.28;5060832;28;20064;-77
2022/09/17 09:13:57;;;;;;;0.95;0.70;;;;;;;28.30;25.30;97109.13;5061105;28;20060;-77
2022/09/17 09:16:31;;;;;;;1.77;0.80;;;;;;;27.42;30.86;97106.84;5065688;28;20068;-77
2022/09/17 09:19:11;;;;;;;0.70;0.70;;;;;;;28.22;25.50;97100.25;5064550;28;20036;-77
2022/09/17 09:21:57;;;;;;;0.65;0.65;;;;;;;27.99;26.51;97101.09;5065574;28;20037;-77
2022/09/17 09:24:28;;;;;;;0.90;0.65;;;;;;;28.42;24.53;97100.38;5053092;28;20045;-77
2022/09/17 09:27:38;;;;;;;0.80;0.80;;;;;;;28.51;27.56;97102.31;5071611;28;20040;-77
2022/09/17 09:30:06;;;;;;;2.25;0.80;;;;;;;28.57;24.80;97114.47;5072043;28;20067;-77
2022/09/17 09:33:11;;;;;;;0.88;0.70;;;;;;;28.63;23.56;97113.34;5070744;28;20386;-77
2022/09/17 09:35:41;;;;;;;0.50;0.50;;;;;;;28.55;23.14;97117.78;5055812;28;20029;-77
2022/09/17 09:38:30;;;;;;;0.70;0.70;;;;;;;29.05;22.67;97132.75;5055185;28;20029;-77
2022/09/17 09:41:21;;;;;;;0.88;0.88;;;;;;;28.50;24.64;97132.59;5064684;28;20044;-79
2022/09/17 09:43:54;;;;;;;1.20;0.70;;;;;;;28.34;26.34;97129.47;5064149;28;20016;-79
2022/09/17 09:46:31;;;;;;;1.35;0.90;;;;;;;27.60;27.76;97130.53;5071948;28;20124;-78
2022/09/17 09:49:16;;;;;;;0.95;0.90;;;;;;;28.14;24.50;97129.34;5065830;28;20028;-78
2022/09/17 09:51:54;;;;;;;0.98;0.90;;;;;;;27.93;27.51;97131.22;5065392;28;20118;-78
2022/09/17 09:54:23;;;;;;;1.35;0.65;;;;;;;29.12;23.54;97138.00;5067923;28;20039;-78
2022/09/17 09:57:16;;;;;;;1.42;0.98;;;;;;;29.51;23.23;97138.59;5066194;28;20047;-78
2022/09/17 09:59:42;;;;;;;0.90;0.90;;;;;;;29.63;27.91;97143.13;5065294;28;20137;-78
2022/09/17 10:02:09;;;;;;;2.17;1.08;;;;;;;28.96;23.75;97149.84;5065366;28;20036;-78
2022/09/17 10:04:35;;;;;;;3.03;0.90;;;;;;;29.37;24.07;97148.69;5068582;28;20028;-79
2022/09/17 10:07:09;;;;;;;0.68;0.68;;;;;;;29.34;23.77;97158.16;5066309;28;20498;-77
2022/09/17 10:09:43;;;;;;;0.85;0.70;;;;;;;29.71;23.51;97154.81;5062915;28;20494;-77
2022/09/17 10:12:09;;;;;;;0.77;0.77;;;;;;;29.73;26.85;97158.72;5070849;28;20020;-78
2022/09/17 10:14:38;;;;;;;1.73;0.88;;;;;;;30.00;23.71;97163.16;5067990;28;20024;-78
2022/09/17 10:17:23;;;;;;;0.85;0.70;;;;;;;31.06;23.35;97151.69;5062719;28;20112;-78
2022/09/17 10:20:03;;;;;;;0.80;0.80;;;;;;;30.78;22.07;97156.31;5072406;28;20035;-78
2022/09/17 10:22:35;;;;;;;0.95;0.80;;;;;;;30.19;23.04;97149.50;5061876;28;20120;-78
2022/09/17 10:25:04;;;;;;;1.90;1.13;;;;;;;30.46;23.35;97154.69;5064151;28;20039;-78
2022/09/17 10:27:31;;;;;;;0.80;0.80;;;;;;;29.49;26.35;97157.31;5067012;28;20119;-78
2022/09/17 10:30:23;;;;;;;0.60;0.60;;;;;;;29.82;24.73;97149.31;5065779;28;20060;-78
2022/09/17 10:33:16;;;;;;;0.70;0.70;;;;;;;30.27;22.70;97151.38;5069237;28;20094;-79
2022/09/17 10:35:58;;;;;;;0.60;0.60;;;;;;;30.65;21.77;97141.75;5068413;28;20021;-79
2022/09/17 10:38:30;;;;;;;0.80;0.80;;;;;;;29.54;24.11;97148.16;5063282;28;20040;-79
2022/09/17 10:41:12;;;;;;;1.08;0.80;;;;;;;29.27;22.45;97147.25;5066663;28;20055;-79
2022/09/17 10:43:39;;;;;;;0.98;0.90;;;;;;;28.73;29.12;97159.97;5068150;28;20086;-78
2022/09/17 10:46:24;;;;;;;1.38;1.08;;;;;;;29.17;24.50;97164.81;5064343;28;20086;-78
2022/09/17 10:49:10;;;;;;;0.80;0.80;;;;;;;29.05;26.86;97149.72;5068776;28;20045;-80
2022/09/17 10:51:37;;;;;;;0.77;0.77;;;;;;;29.53;24.65;97147.34;5060595;28;20040;-79
2022/09/17 10:54:27;;;;;;;0.85;0.85;;;;;;;30.15;25.86;97141.22;5064539;28;20028;-79
2022/09/17 10:56:57;;;;;;;0.75;0.75;;;;;;;30.71;21.92;97137.69;5070870;28;20432;-79
2022/09/17 10:59:29;;;;;;;0.90;0.90;;;;;;;30.00;25.85;97132.81;5066724;28;20072;-79
2022/09/17 11:02:16;;;;;;;0.60;0.60;;;;;;;30.36;22.49;97145.59;5063085;28;20049;-80
2022/09/17 11:05:18;;;;;;;0.80;0.73;;;;;;;30.73;20.82;97137.19;5069884;28;20436;-80
2022/09/17 11:08:09;;;;;;;2.85;1.02;;;;;;;31.01;22.29;97152.41;5065308;28;20090;-80
2022/09/17 11:10:48;;;;;;;1.85;0.60;;;;;;;31.13;23.77;97150.44;5061597;28;21927;-79
2022/09/17 11:13:24;;;;;;;1.02;0.68;;;;;;;30.90;21.91;97157.22;5062455;28;20029;-79
2022/09/17 11:16:14;;;;;;;0.65;0.65;;;;;;;31.06;21.05;97148.84;5066174;28;20055;-80
2022/09/17 11:19:13;;;;;;;;;;;;;;;31.48;19.66;97159.47;5064391;28;20028;-79
2022/09/17 11:21:50;;;;;;;0.88;0.57;;;;;;;31.68;22.66;97141.50;5021667;28;19923;-78
2022/09/17 11:24:44;;;;;;;0.70;0.60;;;;;;;30.88;22.32;97152.03;5064618;28;20032;-79
2022/09/17 11:27:32;;;;;;;0.60;0.60;;;;;;;30.12;25.88;97155.59;5063990;28;20421;-79
2022/09/17 11:30:13;;;;;;;0.70;0.70;;;;;;;30.09;25.96;97140.38;5065524;28;20036;-78
2022/09/17 11:33:12;;;;;;;0.63;0.50;;;;;;;31.21;22.98;97145.84;5067328;28;20021;-78
2022/09/17 11:35:45;;;;;;;1.50;0.50;;;;;;;31.42;21.31;97135.91;5063714;28;20074;-78
2022/09/17 11:38:29;;;;;;;1.20;0.68;;;;;;;32.41;20.65;97146.19;5062416;28;20613;-78
2022/09/17 11:41:19;;;;;;;1.00;0.52;;;;;;;31.75;21.01;97138.19;5065754;28;20063;-78
2022/09/17 11:44:12;;;;;;;2.33;0.60;;;;;;;31.80;19.70;97146.75;5067196;28;20106;-78
2022/09/17 11:46:45;;;;;;;0.63;0.50;;;;;;;31.16;23.96;97152.25;5063117;28;20579;-77
2022/09/17 11:49:28;;;;;;;1.63;0.30;;;;;;;31.24;22.02;97154.13;5065105;28;20154;-78
2022/09/17 11:52:00;;;;;;;0.73;0.45;;;;;;;31.87;20.77;97151.16;5065014;28;20040;-78
2022/09/17 11:54:34;;;;;;;0.30;0.30;;;;;;;32.11;19.90;97145.88;5066395;28;20056;-77
2022/09/17 11:57:20;;;;;;;0.30;0.30;;;;;;;31.08;20.65;97143.44;5064264;28;20072;-78
2022/09/17 11:59:53;;;;;;;0.30;0.30;;;;;;;31.42;20.64;97136.72;5061025;28;20033;-78